Paw Paw, West Virginia
Current Conditions -  °F | °C
As of 3:35 PM on Friday 28 Nov 2014 (Local Time) from KCBE Reporting Station
Scattered Clouds Scattered Clouds  
Wind Chill: 24°   Ceiling: Unl
Heat Index: 32°   Visibility: 10mi
Dew Point: 16°   Wind: 10mph
Humidity: 51%   Direction: 280°W
Pressure: 30.3"   Gusts: NA
Location:  39.53°N, 78.46°W
Report Text: KCBE 282035Z AUTO 28009KT 10SM SCT045 00/M09 A3030 RMK AO1
Loading
Personal Weather Stations






























Interactive Weather Map New forecast layout! Learn more

10-Day Weather Forecast

Advertisements
Track Severe Weather on mobile